Alfred, Texas
Current Conditions -  °F | °C
As of 3:53 AM on Sunday 26 Oct 2014 (Local Time) from KALI Reporting Station
Clear Clear  
Wind Chill: 63°   Ceiling: Unl
Heat Index: 63°   Visibility: 10mi
Dew Point: 60°   Wind: 3mph
Humidity: 90%   Direction: 260°W
Pressure: 30.05"   Gusts: NA
Location:  27.6821°N, 98.1034°W
Report Text: KALI 260853Z AUTO 26003KT 10SM CLR 17/16 A3005 RMK AO2 SLP172 T01720156 56011
Loading
Personal Weather Stations






























Interactive Weather Map
Tropical Storm Tracking
New forecast layout! Learn more

10-Day Weather Forecast

Advertisements
Track Severe Weather on mobile